createdAt,value
2022-09-20T00:00:43.060Z,15.41
2022-09-20T00:03:10.953Z,15.47
2022-09-20T00:05:39.868Z,15.05
2022-09-20T00:08:10.433Z,15.27
2022-09-20T00:10:39.339Z,14.63
2022-09-20T00:13:08.562Z,14.39
2022-09-20T00:15:41.302Z,14.37
2022-09-20T00:18:08.836Z,14.52
2022-09-20T00:20:35.700Z,14.44
2022-09-20T00:23:02.596Z,14.63
2022-09-20T00:25:30.318Z,13.90
2022-09-20T00:27:57.154Z,14.52
2022-09-20T00:30:24.207Z,14.48
2022-09-20T00:32:51.045Z,14.50
2022-09-20T00:35:17.850Z,14.43
2022-09-20T00:37:44.841Z,14.61
2022-09-20T00:40:20.608Z,14.70
2022-09-20T00:42:48.023Z,14.96
2022-09-20T00:45:20.747Z,14.86
2022-09-20T00:47:55.779Z,14.46
2022-09-20T00:50:52.684Z,14.77
2022-09-20T00:53:22.103Z,14.77
2022-09-20T00:56:07.233Z,14.57
2022-09-20T00:58:39.924Z,14.11
2022-09-20T01:01:07.536Z,14.40
2022-09-20T01:03:37.040Z,14.89
2022-09-20T01:06:11.804Z,14.42
2022-09-20T01:08:42.235Z,14.55
2022-09-20T01:11:09.234Z,14.07
2022-09-20T01:13:35.942Z,14.16
2022-09-20T01:16:05.188Z,14.47
2022-09-20T01:18:34.833Z,13.97
2022-09-20T01:21:03.009Z,14.04
2022-09-20T01:24:08.452Z,14.29
2022-09-20T01:26:52.636Z,14.79
2022-09-20T01:29:47.998Z,14.29
2022-09-20T01:32:25.684Z,14.89
2022-09-20T01:34:57.511Z,14.81
2022-09-20T01:37:28.086Z,14.74
2022-09-20T01:40:21.227Z,14.74
2022-09-20T01:43:02.718Z,14.76
2022-09-20T01:45:32.236Z,14.73
2022-09-20T01:48:13.628Z,14.42
2022-09-20T01:51:10.697Z,14.28
2022-09-20T01:54:10.445Z,14.45
2022-09-20T01:56:55.113Z,14.52
2022-09-20T01:59:43.658Z,14.61
2022-09-20T02:02:10.527Z,14.24
2022-09-20T02:05:14.744Z,14.46
2022-09-20T02:08:15.622Z,14.92
2022-09-20T02:10:50.855Z,14.16
2022-09-20T02:13:30.225Z,14.29
2022-09-20T02:16:38.663Z,14.05
2022-09-20T02:19:42.924Z,14.69
2022-09-20T02:22:31.188Z,14.17
2022-09-20T02:25:40.085Z,14.86
2022-09-20T02:28:34.974Z,14.74
2022-09-20T02:31:34.813Z,14.85
2022-09-20T02:34:23.043Z,14.09
2022-09-20T02:36:55.707Z,14.34
2022-09-20T02:39:31.930Z,14.13
2022-09-20T02:42:11.276Z,14.16
2022-09-20T02:45:10.550Z,14.10
2022-09-20T02:47:39.867Z,14.07
2022-09-20T02:50:22.150Z,14.12
2022-09-20T02:53:24.080Z,14.17
2022-09-20T02:55:50.848Z,13.77
2022-09-20T02:58:35.592Z,14.28
2022-09-20T03:01:21.190Z,13.58
2022-09-20T03:04:12.099Z,13.87
2022-09-20T03:06:54.283Z,12.99
2022-09-20T03:09:51.876Z,13.09
2022-09-20T03:12:37.535Z,13.27
2022-09-20T03:15:30.674Z,13.40
2022-09-20T03:18:11.126Z,13.58
2022-09-20T03:21:26.784Z,13.41
2022-09-20T03:24:11.887Z,12.77
2022-09-20T03:26:55.271Z,13.44
2022-09-20T03:29:49.545Z,12.71
2022-09-20T03:32:46.536Z,12.75
2022-09-20T03:35:25.277Z,12.97
2022-09-20T03:38:30.105Z,13.17
2022-09-20T03:41:15.547Z,13.29
2022-09-20T03:43:57.133Z,13.47
2022-09-20T03:46:29.288Z,13.55
2022-09-20T03:49:19.499Z,13.23
2022-09-20T03:52:10.135Z,13.43
2022-09-20T03:54:55.709Z,13.15
2022-09-20T03:57:47.621Z,13.60
2022-09-20T04:00:20.793Z,13.50
2022-09-20T04:02:59.663Z,13.29
2022-09-20T04:05:54.194Z,13.58
2022-09-20T04:08:45.087Z,13.83
2022-09-20T04:11:28.880Z,13.93
2022-09-20T04:14:11.542Z,14.13
2022-09-20T04:16:51.435Z,12.84
2022-09-20T04:19:32.762Z,13.20
2022-09-20T04:22:01.685Z,13.70
2022-09-20T04:24:28.866Z,13.42
2022-09-20T04:27:01.456Z,13.60
2022-09-20T04:29:51.462Z,13.92
2022-09-20T04:32:25.685Z,13.70
2022-09-20T04:35:24.377Z,13.32
2022-09-20T04:37:53.490Z,13.51
2022-09-20T04:40:23.032Z,13.90
2022-09-20T04:43:04.905Z,13.54
2022-09-20T04:45:40.809Z,13.16
2022-09-20T04:48:39.924Z,13.37
2022-09-20T04:51:28.641Z,13.33
2022-09-20T04:54:37.132Z,13.62
2022-09-20T04:57:25.371Z,13.41
2022-09-20T05:00:04.393Z,13.37
2022-09-20T05:02:55.693Z,13.77
2022-09-20T05:05:25.851Z,13.68
2022-09-20T05:08:07.507Z,14.06
2022-09-20T05:11:13.280Z,14.01
2022-09-20T05:14:20.273Z,14.06
2022-09-20T05:17:25.607Z,13.58
2022-09-20T05:20:24.247Z,13.88
2022-09-20T05:23:00.161Z,13.66
2022-09-20T05:25:47.515Z,13.62
2022-09-20T05:28:43.511Z,14.21
2022-09-20T05:31:30.479Z,13.80
2022-09-20T05:34:18.343Z,13.66
2022-09-20T05:36:56.259Z,14.08
2022-09-20T05:39:58.357Z,14.00
2022-09-20T05:42:44.258Z,14.36
2022-09-20T05:45:27.074Z,14.52
2022-09-20T05:48:04.955Z,14.05
2022-09-20T05:50:41.925Z,14.07
2022-09-20T05:53:56.813Z,14.56
2022-09-20T05:56:35.020Z,14.81
2022-09-20T05:59:09.815Z,14.61
2022-09-20T06:02:03.670Z,14.41
2022-09-20T06:04:42.984Z,14.09
2022-09-20T06:07:28.109Z,14.66
2022-09-20T06:10:15.936Z,14.83
2022-09-20T06:13:20.646Z,14.75
2022-09-20T06:16:00.857Z,14.34
2022-09-20T06:19:01.734Z,14.53
2022-09-20T06:21:50.106Z,15.27
2022-09-20T06:24:23.062Z,14.97
2022-09-20T06:26:53.843Z,14.52
2022-09-20T06:29:30.315Z,14.77
2022-09-20T06:31:57.163Z,15.10
2022-09-20T06:34:24.740Z,14.68
2022-09-20T06:37:17.483Z,14.94
2022-09-20T06:40:12.576Z,14.89
2022-09-20T06:42:39.463Z,15.00
2022-09-20T06:45:06.626Z,14.78
2022-09-20T06:47:38.031Z,14.84
2022-09-20T06:50:06.415Z,14.81
2022-09-20T06:52:34.540Z,15.48
2022-09-20T06:55:01.831Z,15.49
2022-09-20T06:57:36.069Z,15.49
2022-09-20T07:00:03.465Z,15.48
2022-09-20T07:02:30.392Z,15.96
2022-09-20T07:04:57.563Z,15.52
2022-09-20T07:07:25.505Z,16.29
2022-09-20T07:09:52.228Z,15.85
2022-09-20T07:12:19.198Z,16.18
2022-09-20T07:14:45.861Z,16.31
2022-09-20T07:17:13.335Z,15.89
2022-09-20T07:19:40.051Z,16.20
2022-09-20T07:22:06.713Z,15.82
2022-09-20T07:24:35.055Z,15.90
2022-09-20T07:27:05.038Z,15.87
2022-09-20T07:29:31.991Z,16.45
2022-09-20T07:31:58.877Z,16.71
2022-09-20T07:34:27.279Z,16.61
2022-09-20T07:36:54.158Z,16.88
2022-09-20T07:39:21.444Z,16.61
2022-09-20T07:41:51.150Z,16.90
2022-09-20T07:44:21.634Z,16.77
2022-09-20T07:46:49.533Z,15.74
2022-09-20T07:49:16.478Z,15.97
2022-09-20T07:51:43.247Z,16.88
2022-09-20T07:54:10.219Z,16.81
2022-09-20T07:56:37.048Z,17.31
2022-09-20T07:59:03.976Z,17.58
2022-09-20T08:01:30.872Z,17.68
2022-09-20T08:04:05.820Z,18.03
2022-09-20T08:06:35.919Z,18.26
2022-09-20T08:09:02.788Z,18.51
2022-09-20T08:11:30.772Z,18.41
2022-09-20T08:14:06.221Z,18.44
2022-09-20T08:16:45.214Z,17.38
2022-09-20T08:19:17.863Z,18.10
2022-09-20T08:21:53.890Z,18.28
2022-09-20T08:24:21.724Z,18.15
2022-09-20T08:26:48.729Z,18.18
2022-09-20T08:29:15.588Z,18.01
2022-09-20T08:31:42.777Z,17.94
2022-09-20T08:34:12.332Z,18.49
2022-09-20T08:36:42.255Z,18.02
2022-09-20T08:42:05.626Z,18.88
2022-09-20T08:45:00.080Z,18.79
2022-09-20T08:47:31.195Z,19.00
2022-09-20T08:49:59.327Z,19.29
2022-09-20T08:52:35.872Z,20.09
2022-09-20T08:55:13.619Z,20.07
2022-09-20T08:57:40.479Z,19.48
2022-09-20T09:00:17.637Z,19.37
2022-09-20T09:02:45.346Z,19.04
2022-09-20T09:05:37.748Z,18.44
2022-09-20T09:08:37.647Z,18.65
2022-09-20T09:11:09.676Z,18.97
2022-09-20T09:14:04.753Z,19.69
2022-09-20T09:16:36.099Z,20.46
2022-09-20T09:19:36.557Z,20.31
2022-09-20T09:22:06.064Z,20.26
2022-09-20T09:24:32.893Z,19.20
2022-09-20T09:27:16.588Z,18.84
2022-09-20T09:29:54.848Z,18.78
2022-09-20T09:32:23.908Z,19.46
2022-09-20T09:34:51.268Z,20.55
2022-09-20T09:37:31.316Z,21.13
2022-09-20T09:40:18.820Z,19.35
2022-09-20T09:43:06.110Z,18.53
2022-09-20T09:45:38.697Z,18.07
2022-09-20T09:48:40.293Z,18.20
2022-09-20T09:51:15.385Z,18.46
2022-09-20T09:53:43.604Z,18.91
2022-09-20T09:56:34.233Z,19.61
2022-09-20T09:59:46.894Z,19.47
2022-09-20T10:02:19.404Z,19.02
2022-09-20T10:05:01.739Z,19.40
2022-09-20T10:07:43.510Z,19.26
2022-09-20T10:10:26.731Z,19.50
2022-09-20T10:13:00.623Z,19.13
2022-09-20T10:15:41.232Z,18.60
2022-09-20T10:18:45.626Z,19.10
2022-09-20T10:21:12.537Z,18.92
2022-09-20T10:24:13.074Z,19.96
2022-09-20T10:26:58.022Z,20.22
2022-09-20T10:29:42.856Z,20.00
2022-09-20T10:32:27.566Z,19.75
2022-09-20T10:35:00.476Z,20.16
2022-09-20T10:37:32.239Z,20.15
2022-09-20T10:40:08.276Z,20.69
2022-09-20T10:43:05.038Z,20.15
2022-09-20T10:48:52.489Z,19.69
2022-09-20T10:51:41.520Z,19.50
2022-09-20T10:54:32.532Z,19.95
2022-09-20T10:57:52.605Z,19.92
2022-09-20T11:00:25.220Z,20.80
2022-09-20T11:03:13.060Z,21.22
2022-09-20T11:06:10.414Z,21.18
2022-09-20T11:08:40.680Z,20.27
2022-09-20T11:11:19.784Z,21.02
2022-09-20T11:13:57.997Z,20.51
2022-09-20T11:16:27.897Z,21.14
2022-09-20T11:18:59.259Z,21.29
2022-09-20T11:21:38.412Z,21.71
2022-09-20T11:24:32.665Z,21.36
2022-09-20T11:27:11.008Z,21.57
2022-09-20T11:30:04.715Z,20.62
2022-09-20T11:32:53.165Z,21.13
2022-09-20T11:35:42.499Z,21.61
2022-09-20T11:38:17.532Z,20.78
2022-09-20T11:41:02.529Z,19.68
2022-09-20T11:43:31.121Z,20.07
2022-09-20T11:46:10.796Z,19.84
2022-09-20T11:48:49.870Z,20.82
2022-09-20T11:51:50.980Z,20.94
2022-09-20T11:54:33.317Z,20.73
2022-09-20T11:57:00.623Z,20.64
2022-09-20T11:59:28.244Z,21.36
2022-09-20T12:01:59.456Z,21.57
2022-09-20T12:04:34.675Z,22.52
2022-09-20T12:07:18.013Z,21.97
2022-09-20T12:09:53.533Z,22.24
2022-09-20T12:12:38.569Z,22.10
2022-09-20T12:15:23.195Z,22.23
2022-09-20T12:17:50.057Z,22.55
2022-09-20T12:20:35.037Z,22.44
2022-09-20T12:23:40.417Z,22.19
2022-09-20T12:26:08.567Z,22.52
2022-09-20T12:28:40.781Z,22.62
2022-09-20T12:31:34.235Z,21.54
2022-09-20T12:34:15.923Z,22.90
2022-09-20T12:36:46.558Z,22.84
2022-09-20T12:39:17.558Z,21.03
2022-09-20T12:42:12.283Z,21.78
2022-09-20T12:44:51.107Z,21.67
2022-09-20T12:47:26.920Z,22.74
2022-09-20T12:50:15.174Z,22.82
2022-09-20T12:52:51.047Z,22.39
2022-09-20T12:55:37.993Z,22.90
2022-09-20T12:58:14.308Z,22.64
2022-09-20T13:00:45.397Z,22.65
2022-09-20T13:03:15.206Z,23.58
2022-09-20T13:05:46.723Z,23.11
2022-09-20T13:08:20.902Z,23.03
2022-09-20T13:11:09.346Z,21.84
2022-09-20T13:13:46.653Z,21.87
2022-09-20T13:16:31.699Z,22.00
2022-09-20T13:19:13.163Z,23.60
2022-09-20T13:21:45.085Z,23.13
2022-09-20T13:24:18.140Z,23.27
2022-09-20T13:26:47.980Z,24.70
2022-09-20T13:29:37.748Z,24.35
2022-09-20T13:32:25.899Z,24.35
2022-09-20T13:35:16.945Z,23.46
2022-09-20T13:37:55.266Z,23.35
2022-09-20T13:40:36.490Z,22.79
2022-09-20T13:43:23.146Z,21.68
2022-09-20T13:45:57.721Z,23.79
2022-09-20T13:48:29.559Z,23.21
2022-09-20T13:50:57.798Z,22.76
2022-09-20T13:53:41.471Z,23.90
2022-09-20T13:56:22.890Z,25.07
2022-09-20T13:58:51.463Z,24.84
2022-09-20T14:01:23.167Z,25.04
2022-09-20T14:03:50.165Z,24.90
2022-09-20T14:06:17.315Z,25.38
2022-09-20T14:08:51.310Z,25.44
2022-09-20T14:11:23.317Z,24.63
2022-09-20T14:13:56.948Z,24.79
2022-09-20T14:16:29.628Z,25.43
2022-09-20T14:18:58.533Z,24.86
2022-09-20T14:21:27.984Z,25.51
2022-09-20T14:23:58.155Z,24.47
2022-09-20T14:26:26.595Z,24.76
2022-09-20T14:28:54.025Z,24.89
2022-09-20T14:31:27.126Z,24.68
2022-09-20T14:33:57.837Z,23.70
2022-09-20T14:36:27.635Z,23.69
2022-09-20T14:39:05.338Z,23.69
2022-09-20T14:41:39.574Z,23.76
2022-09-20T14:44:23.742Z,23.57
2022-09-20T14:46:50.912Z,24.13
2022-09-20T14:49:26.524Z,24.08
2022-09-20T14:51:54.925Z,23.99
2022-09-20T14:54:30.878Z,23.07
2022-09-20T14:56:58.933Z,23.48
2022-09-20T14:59:30.315Z,24.10
2022-09-20T15:02:17.522Z,23.94
2022-09-20T15:04:56.213Z,24.77
2022-09-20T15:07:23.245Z,24.71
2022-09-20T15:09:50.248Z,23.69
2022-09-20T15:12:19.588Z,22.70
2022-09-20T15:14:47.402Z,23.01
2022-09-20T15:17:18.543Z,23.28
2022-09-20T15:19:46.484Z,23.63
2022-09-20T15:22:14.402Z,24.17
2022-09-20T15:24:42.305Z,22.32
2022-09-20T15:27:11.926Z,22.54
2022-09-20T15:29:39.344Z,22.51
2022-09-20T15:32:06.664Z,22.08
2022-09-20T15:34:33.511Z,22.37
2022-09-20T15:37:00.385Z,20.82
2022-09-20T15:39:28.050Z,21.21
2022-09-20T15:41:54.878Z,20.77
2022-09-20T15:44:21.977Z,21.04
2022-09-20T15:46:50.921Z,21.51
2022-09-20T15:49:17.747Z,21.36
2022-09-20T15:51:46.425Z,21.36
2022-09-20T15:54:14.687Z,20.35
2022-09-20T15:56:42.040Z,20.00
2022-09-20T15:59:10.905Z,20.59
2022-09-20T16:01:43.189Z,20.68
2022-09-20T16:04:12.723Z,20.82
2022-09-20T16:06:42.090Z,20.75
2022-09-20T16:09:09.213Z,21.25
2022-09-20T16:11:36.868Z,20.81
2022-09-20T16:14:03.719Z,20.62
2022-09-20T16:16:37.371Z,20.93
2022-09-20T16:19:20.104Z,20.13
2022-09-20T16:21:55.095Z,20.36
2022-09-20T16:24:29.852Z,19.85
2022-09-20T16:26:57.766Z,19.75
2022-09-20T16:29:25.990Z,19.35
2022-09-20T16:31:54.517Z,19.14
2022-09-20T16:34:30.677Z,18.86
2022-09-20T16:37:03.633Z,18.52
2022-09-20T16:39:31.672Z,18.46
2022-09-20T16:42:06.500Z,18.43
2022-09-20T16:44:35.655Z,18.39
2022-09-20T16:47:05.265Z,19.37
2022-09-20T16:49:32.035Z,19.70
2022-09-20T16:51:58.852Z,19.11
2022-09-20T16:54:29.670Z,18.50
2022-09-20T16:56:58.755Z,18.07
2022-09-20T16:59:25.515Z,18.79
2022-09-20T17:01:52.681Z,18.83
2022-09-20T17:04:21.089Z,18.98
2022-09-20T17:06:50.152Z,18.44
2022-09-20T17:09:17.433Z,17.98
2022-09-20T17:11:46.314Z,18.34
2022-09-20T17:14:14.989Z,18.42
2022-09-20T17:16:42.567Z,17.75
2022-09-20T17:19:11.822Z,17.57
2022-09-20T17:21:46.142Z,17.90
2022-09-20T17:24:14.179Z,17.58
2022-09-20T17:26:47.176Z,17.98
2022-09-20T17:29:17.182Z,18.20
2022-09-20T17:31:54.569Z,18.06
2022-09-20T17:34:23.884Z,17.71
2022-09-20T17:36:50.877Z,17.63
2022-09-20T17:39:18.487Z,17.40
2022-09-20T17:41:50.037Z,17.83
2022-09-20T17:44:18.056Z,17.59
2022-09-20T17:46:53.957Z,17.60
2022-09-20T17:49:23.063Z,17.30
2022-09-20T17:51:52.408Z,17.35
2022-09-20T17:54:19.778Z,17.42
2022-09-20T17:56:49.445Z,17.23
2022-09-20T17:59:18.070Z,17.18
2022-09-20T18:01:46.845Z,17.41
2022-09-20T18:04:13.966Z,17.41
2022-09-20T18:06:45.411Z,17.78
2022-09-20T18:09:24.833Z,17.73
2022-09-20T18:11:53.553Z,17.64
2022-09-20T18:14:28.078Z,18.00
2022-09-20T18:16:58.050Z,18.24
2022-09-20T18:19:25.002Z,18.15
2022-09-20T18:21:52.003Z,18.09
2022-09-20T18:24:18.857Z,18.57
2022-09-20T18:26:45.711Z,18.51
2022-09-20T18:29:16.709Z,18.43
2022-09-20T18:32:02.360Z,18.50
2022-09-20T18:34:33.613Z,18.17
2022-09-20T18:37:03.685Z,18.56
2022-09-20T18:39:33.367Z,18.57
2022-09-20T18:42:00.917Z,18.24
2022-09-20T18:44:28.270Z,18.28
2022-09-20T18:46:55.354Z,18.34
2022-09-20T18:49:22.588Z,18.67
2022-09-20T18:51:49.726Z,18.72
2022-09-20T18:54:17.435Z,18.53
2022-09-20T18:56:46.253Z,18.45
2022-09-20T18:59:16.731Z,18.53
2022-09-20T19:01:55.797Z,18.59
2022-09-20T19:04:47.321Z,18.45
2022-09-20T19:07:55.120Z,18.36
2022-09-20T19:10:43.872Z,18.36
2022-09-20T19:13:57.420Z,18.39
2022-09-20T19:16:41.000Z,18.09
2022-09-20T19:19:26.762Z,17.95
2022-09-20T19:22:05.790Z,18.13
2022-09-20T19:25:04.835Z,17.91
2022-09-20T19:27:32.034Z,18.04
2022-09-20T19:29:59.100Z,18.01
2022-09-20T19:32:27.827Z,18.11
2022-09-20T19:34:56.267Z,17.92
2022-09-20T19:37:42.676Z,18.08
2022-09-20T19:40:18.564Z,18.02
2022-09-20T19:42:53.096Z,17.90
2022-09-20T19:45:50.857Z,18.08
2022-09-20T19:48:28.833Z,18.00
2022-09-20T19:50:56.697Z,17.78
2022-09-20T19:53:28.195Z,17.73
2022-09-20T19:55:59.767Z,17.54
2022-09-20T19:58:27.133Z,17.46
2022-09-20T20:00:54.123Z,17.36
2022-09-20T20:03:26.154Z,17.51
2022-09-20T20:06:05.785Z,17.59
2022-09-20T20:08:43.402Z,17.55
2022-09-20T20:11:18.423Z,17.39
2022-09-20T20:14:03.193Z,17.23
2022-09-20T20:16:41.998Z,17.30
2022-09-20T20:19:18.986Z,17.55
2022-09-20T20:21:51.546Z,17.36
2022-09-20T20:24:21.238Z,17.11
2022-09-20T20:26:49.010Z,17.13
2022-09-20T20:29:15.843Z,16.59
2022-09-20T20:31:42.538Z,16.71
2022-09-20T20:34:09.510Z,17.00
2022-09-20T20:36:36.244Z,17.04
2022-09-20T20:39:03.348Z,16.99
2022-09-20T20:41:31.647Z,16.98
2022-09-20T20:43:58.402Z,16.90
2022-09-20T20:46:25.978Z,17.11
2022-09-20T20:48:52.907Z,17.01
2022-09-20T20:51:22.169Z,16.71
2022-09-20T20:53:51.012Z,16.57
2022-09-20T20:56:26.289Z,16.43
2022-09-20T20:58:54.323Z,16.59
2022-09-20T21:01:25.188Z,16.18
2022-09-20T21:03:53.921Z,16.29
2022-09-20T21:06:24.132Z,16.29
2022-09-20T21:08:50.911Z,16.45
2022-09-20T21:11:38.873Z,16.76
2022-09-20T21:14:07.396Z,16.73
2022-09-20T21:16:36.623Z,16.54
2022-09-20T21:19:05.679Z,16.51
2022-09-20T21:21:35.164Z,16.38
2022-09-20T21:24:05.057Z,16.08
2022-09-20T21:26:33.397Z,16.17
2022-09-20T21:29:02.926Z,16.14
2022-09-20T21:31:32.421Z,16.23
2022-09-20T21:34:00.015Z,15.85
2022-09-20T21:36:28.738Z,15.91
2022-09-20T21:38:55.814Z,16.06
2022-09-20T21:41:27.462Z,16.06
2022-09-20T21:43:55.963Z,15.93
2022-09-20T21:46:41.932Z,15.77
2022-09-20T21:49:10.958Z,15.41
2022-09-20T21:51:39.114Z,15.65
2022-09-20T21:54:06.454Z,15.43
2022-09-20T21:56:35.887Z,15.54
2022-09-20T21:59:04.393Z,15.23
2022-09-20T22:01:36.583Z,15.31
2022-09-20T22:04:09.433Z,15.55
2022-09-20T22:06:38.923Z,14.55
2022-09-20T22:09:08.823Z,14.85
2022-09-20T22:11:39.152Z,15.03
2022-09-20T22:14:07.159Z,15.18
2022-09-20T22:16:37.082Z,15.12
2022-09-20T22:19:05.190Z,15.25
2022-09-20T22:21:37.022Z,15.29
2022-09-20T22:24:07.763Z,14.77
2022-09-20T22:26:46.691Z,13.32
2022-09-20T22:29:14.266Z,13.78
2022-09-20T22:31:47.291Z,14.42
2022-09-20T22:34:16.922Z,14.50
2022-09-20T22:36:44.443Z,14.71
2022-09-20T22:39:12.484Z,14.92
2022-09-20T22:41:41.247Z,14.90
2022-09-20T22:44:08.662Z,15.08
2022-09-20T22:46:36.303Z,14.97
2022-09-20T22:49:05.829Z,15.03
2022-09-20T22:51:33.454Z,14.91
2022-09-20T22:54:04.257Z,14.50
2022-09-20T22:56:32.150Z,14.71
2022-09-20T22:59:10.007Z,14.68
2022-09-20T23:01:39.627Z,14.43
2022-09-20T23:04:10.813Z,14.50
2022-09-20T23:06:43.256Z,14.48
2022-09-20T23:09:14.483Z,14.44
2022-09-20T23:11:42.745Z,14.69
2022-09-20T23:14:15.016Z,14.43
2022-09-20T23:16:42.761Z,14.81
2022-09-20T23:19:10.953Z,14.66
2022-09-20T23:21:39.087Z,14.65
2022-09-20T23:24:08.150Z,14.53
2022-09-20T23:26:37.152Z,14.56
2022-09-20T23:29:05.628Z,14.41
2022-09-20T23:31:34.575Z,14.48
2022-09-20T23:34:03.730Z,14.49
2022-09-20T23:36:34.178Z,14.62
2022-09-20T23:39:02.141Z,14.64
2022-09-20T23:41:29.220Z,14.35
2022-09-20T23:43:56.472Z,14.22
2022-09-20T23:46:24.750Z,14.24
2022-09-20T23:48:51.618Z,14.19
2022-09-20T23:51:22.755Z,14.49
2022-09-20T23:53:50.885Z,14.37
2022-09-20T23:56:18.938Z,14.34
2022-09-20T23:58:45.968Z,14.30
